createdAt,value
2023-02-18T00:01:24.054Z,6.05
2023-02-18T00:03:52.381Z,6.65
2023-02-18T00:06:22.364Z,6.22
2023-02-18T00:08:49.249Z,5.75
2023-02-18T00:11:16.871Z,6.43
2023-02-18T00:13:43.510Z,5.93
2023-02-18T00:16:12.321Z,6.03
2023-02-18T00:18:39.651Z,6.25
2023-02-18T00:21:08.396Z,5.75
2023-02-18T00:23:35.592Z,6.28
2023-02-18T00:26:12.194Z,5.60
2023-02-18T00:28:38.704Z,6.20
2023-02-18T00:31:11.080Z,5.45
2023-02-18T00:33:41.296Z,5.70
2023-02-18T00:36:11.195Z,6.15
2023-02-18T00:38:37.946Z,5.90
2023-02-18T00:41:05.105Z,5.80
2023-02-18T00:43:31.726Z,5.75
2023-02-18T00:45:58.378Z,6.68
2023-02-18T00:48:24.970Z,6.05
2023-02-18T00:50:51.541Z,5.90
2023-02-18T00:53:18.378Z,5.82
2023-02-18T00:55:47.924Z,6.00
2023-02-18T00:58:15.894Z,6.10
2023-02-18T01:00:44.027Z,5.93
2023-02-18T01:03:11.226Z,6.72
2023-02-18T01:05:38.830Z,6.60
2023-02-18T01:08:06.528Z,6.10
2023-02-18T01:10:34.540Z,6.47
2023-02-18T01:13:01.604Z,6.75
2023-02-18T01:15:28.437Z,6.32
2023-02-18T01:17:54.932Z,7.15
2023-02-18T01:20:21.700Z,6.95
2023-02-18T01:22:48.277Z,6.13
2023-02-18T01:25:18.267Z,6.32
2023-02-18T01:27:47.404Z,6.40
2023-02-18T01:30:16.281Z,6.57
2023-02-18T01:32:44.016Z,6.57
2023-02-18T01:35:13.264Z,6.28
2023-02-18T01:37:40.029Z,6.50
2023-02-18T01:40:07.484Z,7.25
2023-02-18T01:42:33.999Z,7.07
2023-02-18T01:45:34.896Z,7.30
2023-02-18T01:48:07.178Z,7.30
2023-02-18T01:50:35.996Z,6.60
2023-02-18T01:53:03.212Z,6.30
2023-02-18T01:55:29.742Z,5.78
2023-02-18T01:57:56.294Z,5.78
2023-02-18T02:00:23.178Z,5.28
2023-02-18T02:02:52.378Z,6.13
2023-02-18T02:05:22.139Z,6.35
2023-02-18T02:07:54.789Z,5.85
2023-02-18T02:10:22.732Z,6.53
2023-02-18T02:13:00.945Z,4.97
2023-02-18T02:15:37.944Z,5.80
2023-02-18T02:18:19.832Z,5.50
2023-02-18T02:21:03.298Z,5.25
2023-02-18T02:23:41.961Z,5.15
2023-02-18T02:26:18.820Z,5.22
2023-02-18T02:29:10.623Z,5.80
2023-02-18T02:31:59.038Z,5.60
2023-02-18T02:35:06.154Z,4.88
2023-02-18T02:37:46.785Z,4.70
2023-02-18T02:40:29.208Z,5.07
2023-02-18T02:43:19.048Z,5.03
2023-02-18T02:46:25.398Z,5.72
2023-02-18T02:49:00.898Z,4.57
2023-02-18T02:51:35.267Z,5.10
2023-02-18T02:54:18.257Z,4.43
2023-02-18T02:56:45.219Z,4.73
2023-02-18T02:59:20.474Z,4.47
2023-02-18T03:02:02.001Z,4.55
2023-02-18T03:04:44.554Z,4.40
2023-02-18T03:07:39.847Z,4.78
2023-02-18T03:10:28.228Z,4.80
2023-02-18T03:13:34.247Z,4.65
2023-02-18T03:16:10.456Z,4.20
2023-02-18T03:18:40.819Z,4.53
2023-02-18T03:21:25.293Z,4.30
2023-02-18T03:24:13.523Z,4.68
2023-02-18T03:26:47.175Z,3.88
2023-02-18T03:31:46.319Z,4.10
2023-02-18T03:34:20.105Z,4.20
2023-02-18T03:39:19.539Z,4.45
2023-02-18T03:41:47.854Z,4.05
2023-02-18T03:44:14.564Z,3.88
2023-02-18T03:46:44.409Z,4.18
2023-02-18T03:49:15.314Z,3.88
2023-02-18T03:51:42.991Z,3.33
2023-02-18T03:54:10.261Z,4.28
2023-02-18T03:56:37.711Z,3.65
2023-02-18T03:59:04.486Z,3.50
2023-02-18T04:01:32.715Z,3.72
2023-02-18T04:03:59.383Z,3.35
2023-02-18T04:06:26.001Z,3.50
2023-02-18T04:08:52.733Z,3.17
2023-02-18T04:11:19.342Z,3.17
2023-02-18T04:13:46.002Z,3.10
2023-02-18T04:16:15.927Z,3.28
2023-02-18T04:18:42.422Z,3.08
2023-02-18T04:21:08.925Z,3.47
2023-02-18T04:23:35.614Z,2.80
2023-02-18T04:26:02.523Z,3.13
2023-02-18T04:28:29.112Z,3.63
2023-02-18T04:30:55.727Z,3.60
2023-02-18T04:33:22.233Z,3.05
2023-02-18T04:35:48.785Z,2.90
2023-02-18T04:38:15.254Z,2.70
2023-02-18T04:40:43.662Z,3.25
2023-02-18T04:43:10.405Z,2.63
2023-02-18T04:45:36.925Z,2.90
2023-02-18T04:48:03.612Z,2.63
2023-02-18T04:50:30.063Z,2.85
2023-02-18T04:52:56.485Z,2.60
2023-02-18T04:55:23.066Z,2.63
2023-02-18T04:57:49.838Z,2.28
2023-02-18T05:00:19.065Z,2.20
2023-02-18T05:02:46.719Z,2.55
2023-02-18T05:05:14.621Z,2.20
2023-02-18T05:07:42.783Z,2.22
2023-02-18T05:10:16.790Z,2.03
2023-02-18T05:12:43.525Z,2.20
2023-02-18T05:15:10.420Z,1.90
2023-02-18T05:17:37.505Z,1.77
2023-02-18T05:20:04.523Z,1.92
2023-02-18T05:22:31.136Z,1.70
2023-02-18T05:24:57.727Z,2.13
2023-02-18T05:27:24.237Z,1.77
2023-02-18T05:29:50.721Z,1.92
2023-02-18T05:32:19.836Z,1.70
2023-02-18T05:34:46.289Z,1.50
2023-02-18T05:37:14.324Z,1.88
2023-02-18T05:39:41.565Z,1.58
2023-02-18T05:42:08.299Z,1.50
2023-02-18T05:44:35.135Z,1.60
2023-02-18T05:47:09.322Z,1.30
2023-02-18T05:49:38.798Z,1.45
2023-02-18T05:52:06.573Z,1.70
2023-02-18T05:54:34.155Z,1.08
2023-02-18T05:57:01.570Z,0.90
2023-02-18T05:59:28.426Z,1.10
2023-02-18T06:01:55.340Z,0.80
2023-02-18T06:04:22.192Z,0.75
2023-02-18T06:06:48.743Z,0.68
2023-02-18T06:09:15.529Z,0.63
2023-02-18T06:11:42.127Z,0.70
2023-02-18T06:14:09.773Z,0.70
2023-02-18T06:16:36.368Z,0.70
2023-02-18T06:19:03.399Z,0.52
2023-02-18T06:21:29.948Z,0.60
2023-02-18T06:23:56.517Z,0.70
2023-02-18T06:26:23.079Z,0.70
2023-02-18T06:28:49.555Z,0.40
2023-02-18T06:31:16.239Z,0.50
2023-02-18T06:33:43.100Z,0.50
2023-02-18T06:36:12.152Z,0.50
2023-02-18T06:38:47.851Z,0.50
2023-02-18T06:41:17.396Z,0.60
2023-02-18T06:43:48.439Z,0.50
2023-02-18T06:46:14.942Z,0.50
2023-02-18T06:48:41.462Z,0.40
2023-02-18T06:51:08.489Z,0.70
2023-02-18T06:53:39.046Z,0.60
2023-02-18T06:56:05.532Z,0.40
2023-02-18T06:58:32.004Z,0.60
2023-02-18T07:00:58.912Z,0.60
2023-02-18T07:03:25.561Z,0.70
2023-02-18T07:05:52.003Z,0.50
2023-02-18T07:08:26.971Z,0.57
2023-02-18T07:10:53.477Z,0.55
2023-02-18T07:13:19.925Z,0.40
2023-02-18T07:15:46.333Z,0.45
2023-02-18T07:18:12.913Z,0.32
2023-02-18T07:20:39.368Z,0.47
2023-02-18T07:23:05.782Z,0.40
2023-02-18T07:25:32.177Z,0.47
2023-02-18T07:27:58.603Z,0.30
2023-02-18T07:30:25.051Z,0.50
2023-02-18T07:32:51.516Z,0.40
2023-02-18T07:35:19.561Z,0.60
2023-02-18T07:37:47.790Z,0.20
2023-02-18T07:40:17.847Z,0.30
2023-02-18T07:42:44.425Z,0.30
2023-02-18T07:45:11.820Z,0.38
2023-02-18T07:47:38.433Z,0.40
2023-02-18T07:50:06.010Z,0.30
2023-02-18T07:52:33.628Z,0.30
2023-02-18T07:55:00.408Z,0.30
2023-02-18T07:57:26.936Z,0.20
2023-02-18T07:59:53.403Z,0.20
2023-02-18T08:02:23.618Z,0.25
2023-02-18T08:04:50.316Z,0.30
2023-02-18T08:07:18.466Z,0.13
2023-02-18T08:09:44.957Z,0.35
2023-02-18T08:12:11.373Z,0.10
2023-02-18T08:14:37.967Z,0.60
2023-02-18T08:17:04.390Z,0.15
2023-02-18T08:19:30.818Z,0.30
2023-02-18T08:22:00.774Z,0.40
2023-02-18T08:24:27.437Z,0.10
2023-02-18T08:27:00.919Z,0.55
2023-02-18T08:29:29.900Z,0.28
2023-02-18T08:31:58.171Z,0.10
2023-02-18T08:34:26.009Z,0.65
2023-02-18T08:36:52.460Z,0.50
2023-02-18T08:39:18.922Z,0.55
2023-02-18T08:41:45.319Z,0.38
2023-02-18T08:44:11.779Z,0.38
2023-02-18T08:46:38.284Z,0.40
2023-02-18T08:49:05.075Z,0.30
2023-02-18T08:51:31.821Z,0.35
2023-02-18T08:53:58.952Z,0.43
2023-02-18T08:56:25.787Z,0.32
2023-02-18T08:58:52.222Z,0.30
2023-02-18T09:01:18.749Z,0.25
2023-02-18T09:03:45.221Z,0.30
2023-02-18T09:06:12.394Z,0.30
2023-02-18T09:08:38.950Z,0.10
2023-02-18T09:11:05.963Z,0.15
2023-02-18T09:13:33.786Z,0.30
2023-02-18T09:16:12.629Z,0.20
2023-02-18T09:18:39.313Z,0.32
2023-02-18T09:21:08.289Z,0.20
2023-02-18T09:23:39.734Z,0.30
2023-02-18T09:26:07.936Z,0.25
2023-02-18T09:28:35.759Z,0.22
2023-02-18T09:31:13.470Z,0.30
2023-02-18T09:33:45.438Z,0.20
2023-02-18T09:36:12.594Z,0.30
2023-02-18T09:38:40.221Z,0.40
2023-02-18T09:41:13.925Z,0.25
2023-02-18T09:46:22.032Z,0.30
2023-02-18T09:48:49.499Z,0.20
2023-02-18T09:51:17.089Z,0.17
2023-02-18T09:53:45.397Z,0.40
2023-02-18T09:56:16.261Z,0.30
2023-02-18T09:58:44.157Z,0.40
2023-02-18T10:01:30.609Z,0.20
2023-02-18T10:04:03.558Z,0.25
2023-02-18T10:06:33.392Z,0.20
2023-02-18T10:09:04.720Z,0.17
2023-02-18T10:11:37.975Z,0.40
2023-02-18T10:14:11.116Z,0.22
2023-02-18T10:16:37.850Z,0.22
2023-02-18T10:19:28.236Z,0.15
2023-02-18T10:21:55.990Z,0.28
2023-02-18T10:24:29.868Z,0.20
2023-02-18T10:26:57.330Z,0.20
2023-02-18T10:29:25.522Z,0.25
2023-02-18T10:32:23.374Z,0.10
2023-02-18T10:35:22.202Z,0.30
2023-02-18T10:38:09.853Z,0.50
2023-02-18T10:40:59.926Z,0.20
2023-02-18T10:43:56.499Z,0.30
2023-02-18T10:46:34.452Z,0.25
2023-02-18T10:49:25.551Z,0.40
2023-02-18T10:51:56.413Z,0.43
2023-02-18T10:54:25.706Z,0.22
2023-02-18T10:56:58.151Z,0.10
2023-02-18T10:59:27.763Z,0.40
2023-02-18T11:02:03.548Z,0.60
2023-02-18T11:04:42.396Z,0.50
2023-02-18T11:07:16.372Z,0.70
2023-02-18T11:10:26.409Z,0.60
2023-02-18T11:13:00.996Z,0.40
2023-02-18T11:15:29.148Z,0.35
2023-02-18T11:18:11.214Z,1.08
2023-02-18T11:20:39.584Z,0.22
2023-02-18T11:23:05.913Z,0.45
2023-02-18T11:25:36.132Z,0.65
2023-02-18T11:28:06.193Z,0.35
2023-02-18T11:30:43.525Z,0.30
2023-02-18T11:33:19.514Z,0.30
2023-02-18T11:35:51.944Z,0.43
2023-02-18T11:38:25.754Z,0.50
2023-02-18T11:41:00.131Z,0.45
2023-02-18T11:43:30.729Z,0.40
2023-02-18T11:46:11.280Z,0.40
2023-02-18T11:48:38.925Z,0.35
2023-02-18T11:51:07.251Z,0.45
2023-02-18T11:53:37.597Z,0.60
2023-02-18T11:56:05.893Z,0.50
2023-02-18T11:58:40.865Z,0.60
2023-02-18T12:01:15.579Z,0.50
2023-02-18T12:03:52.712Z,0.25
2023-02-18T12:06:24.812Z,1.30
2023-02-18T12:08:54.209Z,1.50
2023-02-18T12:11:32.069Z,0.57
2023-02-18T12:13:59.182Z,2.20
2023-02-18T12:16:57.033Z,0.43
2023-02-18T12:19:45.635Z,0.50
2023-02-18T12:22:24.695Z,0.57
2023-02-18T12:25:09.988Z,0.50
2023-02-18T12:27:48.309Z,1.20
2023-02-18T12:30:40.359Z,0.90
2023-02-18T12:33:22.133Z,0.70
2023-02-18T12:36:11.361Z,0.40
2023-02-18T12:38:52.475Z,0.70
2023-02-18T12:41:40.594Z,0.60
2023-02-18T12:44:28.632Z,0.50
2023-02-18T12:47:13.515Z,0.80
2023-02-18T12:50:18.046Z,1.08
2023-02-18T12:55:37.047Z,0.80
2023-02-18T12:58:33.169Z,0.80
2023-02-18T13:01:19.114Z,0.95
2023-02-18T13:03:51.905Z,0.88
2023-02-18T13:06:28.475Z,0.77
2023-02-18T13:09:09.873Z,0.82
2023-02-18T13:11:54.774Z,0.85
2023-02-18T13:14:25.699Z,0.70
2023-02-18T13:16:54.955Z,0.88
2023-02-18T13:19:38.122Z,0.65
2023-02-18T13:22:09.654Z,1.03
2023-02-18T13:24:39.106Z,1.05
2023-02-18T13:27:24.904Z,1.00
2023-02-18T13:30:36.234Z,1.13
2023-02-18T13:33:19.854Z,1.00
2023-02-18T13:36:00.380Z,1.20
2023-02-18T13:38:35.537Z,1.08
2023-02-18T13:41:02.349Z,0.75
2023-02-18T13:43:31.893Z,1.00
2023-02-18T13:46:05.568Z,0.80
2023-02-18T13:51:04.074Z,0.80
2023-02-18T13:53:42.686Z,0.65
2023-02-18T13:56:20.842Z,0.80
2023-02-18T13:58:59.576Z,0.60
2023-02-18T14:01:45.025Z,0.70
2023-02-18T14:04:39.721Z,1.10
2023-02-18T14:07:24.861Z,0.70
2023-02-18T14:09:53.520Z,0.60
2023-02-18T14:12:34.915Z,0.93
2023-02-18T14:15:02.128Z,0.70
2023-02-18T14:17:37.580Z,1.02
2023-02-18T14:20:03.976Z,0.80
2023-02-18T14:22:47.136Z,0.90
2023-02-18T14:25:35.168Z,0.98
2023-02-18T14:28:04.830Z,0.88
2023-02-18T14:30:42.234Z,0.70
2023-02-18T14:33:15.631Z,0.90
2023-02-18T14:36:06.215Z,0.77
2023-02-18T14:39:17.564Z,0.80
2023-02-18T14:41:56.407Z,0.68
2023-02-18T14:44:49.664Z,0.73
2023-02-18T14:47:45.943Z,0.90
2023-02-18T14:50:16.399Z,1.27
2023-02-18T14:52:47.870Z,0.70
2023-02-18T14:55:27.542Z,0.77
2023-02-18T14:58:02.860Z,0.80
2023-02-18T15:00:34.830Z,0.80
2023-02-18T15:03:02.071Z,0.90
2023-02-18T15:05:31.629Z,1.30
2023-02-18T15:08:18.322Z,0.80
2023-02-18T15:10:59.010Z,0.90
2023-02-18T15:13:31.540Z,0.88
2023-02-18T15:16:02.187Z,0.70
2023-02-18T15:18:35.423Z,0.73
2023-02-18T15:21:04.789Z,0.73
2023-02-18T15:23:34.969Z,1.98
2023-02-18T15:26:01.629Z,1.17
2023-02-18T15:28:30.586Z,1.10
2023-02-18T15:31:02.821Z,0.73
2023-02-18T15:33:29.714Z,3.08
2023-02-18T15:36:04.557Z,0.82
2023-02-18T15:38:31.308Z,1.73
2023-02-18T15:40:59.758Z,0.80
2023-02-18T15:43:30.238Z,1.02
2023-02-18T15:45:58.458Z,0.60
2023-02-18T15:48:33.371Z,0.80
2023-02-18T15:51:16.242Z,0.80
2023-02-18T15:53:47.294Z,1.20
2023-02-18T15:56:24.469Z,1.30
2023-02-18T15:58:50.884Z,0.90
2023-02-18T16:01:28.211Z,0.88
2023-02-18T16:03:55.640Z,1.60
2023-02-18T16:06:26.740Z,0.75
2023-02-18T16:09:19.386Z,0.80
2023-02-18T16:11:50.617Z,0.80
2023-02-18T16:14:27.184Z,0.60
2023-02-18T16:17:18.725Z,0.90
2023-02-18T16:20:33.330Z,0.80
2023-02-18T16:23:03.428Z,0.85
2023-02-18T16:25:43.108Z,1.13
2023-02-18T16:28:27.906Z,0.70
2023-02-18T16:30:54.576Z,0.65
2023-02-18T16:33:21.049Z,1.00
2023-02-18T16:35:50.224Z,0.70
2023-02-18T16:38:24.196Z,0.60
2023-02-18T16:40:51.957Z,1.67
2023-02-18T16:43:21.453Z,0.80
2023-02-18T16:45:54.745Z,0.60
2023-02-18T16:48:31.835Z,0.60
2023-02-18T16:51:04.766Z,0.85
2023-02-18T16:53:31.255Z,1.00
2023-02-18T16:55:57.752Z,0.60
2023-02-18T16:58:24.338Z,0.55
2023-02-18T17:00:52.466Z,0.75
2023-02-18T17:03:19.917Z,1.75
2023-02-18T17:05:46.939Z,0.65
2023-02-18T17:08:27.203Z,0.60
2023-02-18T17:10:56.374Z,0.77
2023-02-18T17:13:26.386Z,0.55
2023-02-18T17:15:55.009Z,0.60
2023-02-18T17:18:22.128Z,0.75
2023-02-18T17:20:50.248Z,1.20
2023-02-18T17:23:22.977Z,0.50
2023-02-18T17:25:50.858Z,1.10
2023-02-18T17:28:19.200Z,2.45
2023-02-18T17:30:56.490Z,1.17
2023-02-18T17:33:25.070Z,0.80
2023-02-18T17:35:51.676Z,1.05
2023-02-18T17:38:19.490Z,0.70
2023-02-18T17:40:46.008Z,0.80
2023-02-18T17:43:15.307Z,1.30
2023-02-18T17:45:49.785Z,3.53
2023-02-18T17:48:16.304Z,3.50
2023-02-18T17:50:42.854Z,1.63
2023-02-18T17:53:11.707Z,2.20
2023-02-18T17:55:38.905Z,1.88
2023-02-18T17:58:06.639Z,0.93
2023-02-18T18:00:36.482Z,0.77
2023-02-18T18:03:04.025Z,1.00
2023-02-18T18:05:33.567Z,1.10
2023-02-18T18:08:01.267Z,1.42
2023-02-18T18:10:32.149Z,0.90
2023-02-18T18:13:00.773Z,0.70
2023-02-18T18:15:42.170Z,2.90
2023-02-18T18:18:11.782Z,1.23
2023-02-18T18:20:39.837Z,1.10
2023-02-18T18:23:07.863Z,1.08
2023-02-18T18:25:39.993Z,1.10
2023-02-18T18:28:08.654Z,0.98
2023-02-18T18:30:38.368Z,1.08
2023-02-18T18:33:14.826Z,1.00
2023-02-18T18:35:41.531Z,1.02
2023-02-18T18:38:08.053Z,1.00
2023-02-18T18:40:34.779Z,1.00
2023-02-18T18:43:02.356Z,1.30
2023-02-18T18:45:32.536Z,1.00
2023-02-18T18:47:58.957Z,0.90
2023-02-18T18:50:28.562Z,1.00
2023-02-18T18:52:55.011Z,1.08
2023-02-18T18:55:33.686Z,1.00
2023-02-18T18:58:01.108Z,1.10
2023-02-18T19:00:34.109Z,1.02
2023-02-18T19:03:03.209Z,0.93
2023-02-18T19:05:37.215Z,0.73
2023-02-18T19:08:06.914Z,1.05
2023-02-18T19:10:39.688Z,1.00
2023-02-18T19:13:14.836Z,0.80
2023-02-18T19:15:41.273Z,0.90
2023-02-18T19:18:11.099Z,0.80
2023-02-18T19:20:37.630Z,0.85
2023-02-18T19:23:05.453Z,0.75
2023-02-18T19:25:31.946Z,0.50
2023-02-18T19:27:58.731Z,0.60
2023-02-18T19:30:31.560Z,0.85
2023-02-18T19:32:59.925Z,0.60
2023-02-18T19:35:27.619Z,0.80
2023-02-18T19:37:55.286Z,0.82
2023-02-18T19:40:25.248Z,1.10
2023-02-18T19:42:52.625Z,1.10
2023-02-18T19:45:19.734Z,1.25
2023-02-18T19:47:46.315Z,0.85
2023-02-18T19:50:16.238Z,1.08
2023-02-18T19:52:42.734Z,1.80
2023-02-18T19:55:13.094Z,1.05
2023-02-18T19:57:39.681Z,1.20
2023-02-18T20:00:10.393Z,1.20
2023-02-18T20:02:37.032Z,1.35
2023-02-18T20:05:03.573Z,1.10
2023-02-18T20:07:30.210Z,1.48
2023-02-18T20:09:56.846Z,1.33
2023-02-18T20:12:23.361Z,1.90
2023-02-18T20:14:51.183Z,1.55
2023-02-18T20:17:19.035Z,1.88
2023-02-18T20:19:45.550Z,1.50
2023-02-18T20:22:12.667Z,1.42
2023-02-18T20:24:42.488Z,1.60
2023-02-18T20:27:09.684Z,1.70
2023-02-18T20:29:36.417Z,1.90
2023-02-18T20:32:04.881Z,1.80
2023-02-18T20:34:32.823Z,1.98
2023-02-18T20:37:00.375Z,1.65
2023-02-18T20:39:27.345Z,1.60
2023-02-18T20:41:53.860Z,1.90
2023-02-18T20:44:22.235Z,1.90
2023-02-18T20:46:49.253Z,1.75
2023-02-18T20:49:18.806Z,1.75
2023-02-18T20:51:45.406Z,3.17
2023-02-18T20:54:15.945Z,2.22
2023-02-18T20:56:43.972Z,2.15
2023-02-18T20:59:16.422Z,2.08
2023-02-18T21:01:45.061Z,2.10
2023-02-18T21:04:13.770Z,2.28
2023-02-18T21:06:40.660Z,2.15
2023-02-18T21:09:07.539Z,2.25
2023-02-18T21:11:34.626Z,2.30
2023-02-18T21:14:01.548Z,2.38
2023-02-18T21:16:29.335Z,3.10
2023-02-18T21:18:55.966Z,3.08
2023-02-18T21:21:25.322Z,2.70
2023-02-18T21:23:52.530Z,3.05
2023-02-18T21:26:22.174Z,2.55
2023-02-18T21:28:50.857Z,2.67
2023-02-18T21:31:19.971Z,2.85
2023-02-18T21:33:46.786Z,2.45
2023-02-18T21:36:14.306Z,2.70
2023-02-18T21:38:42.990Z,2.47
2023-02-18T21:41:09.913Z,2.80
2023-02-18T21:43:36.508Z,2.50
2023-02-18T21:46:10.288Z,2.25
2023-02-18T21:48:55.078Z,2.30
2023-02-18T21:51:39.989Z,2.22
2023-02-18T21:54:06.518Z,2.10
2023-02-18T21:56:33.901Z,2.13
2023-02-18T21:59:00.386Z,1.30
2023-02-18T22:01:27.777Z,1.25
2023-02-18T22:03:55.639Z,1.02
2023-02-18T22:06:22.233Z,1.23
2023-02-18T22:08:48.761Z,5.40
2023-02-18T22:11:15.465Z,5.22
2023-02-18T22:13:41.896Z,3.42
2023-02-18T22:16:08.364Z,2.15
2023-02-18T22:18:34.925Z,1.85
2023-02-18T22:21:09.077Z,1.85
2023-02-18T22:23:37.531Z,1.80
2023-02-18T22:26:09.196Z,2.03
2023-02-18T22:28:35.850Z,1.23
2023-02-18T22:31:10.460Z,1.35
2023-02-18T22:33:37.340Z,1.77
2023-02-18T22:36:07.310Z,1.20
2023-02-18T22:38:36.893Z,1.50
2023-02-18T22:41:09.465Z,1.40
2023-02-18T22:43:36.396Z,1.40
2023-02-18T22:46:04.211Z,1.33
2023-02-18T22:48:32.552Z,1.38
2023-02-18T22:51:06.440Z,1.33
2023-02-18T22:53:33.660Z,1.20
2023-02-18T22:56:05.869Z,1.00
2023-02-18T22:58:32.635Z,1.08
2023-02-18T23:00:59.263Z,0.70
2023-02-18T23:03:27.601Z,0.70
2023-02-18T23:05:55.606Z,1.08
2023-02-18T23:08:22.877Z,0.93
2023-02-18T23:11:02.097Z,1.00
2023-02-18T23:13:28.693Z,1.05
2023-02-18T23:16:04.767Z,0.90
2023-02-18T23:18:32.798Z,0.90
2023-02-18T23:21:20.064Z,0.80
2023-02-18T23:23:56.392Z,1.48
2023-02-18T23:26:26.484Z,1.23
2023-02-18T23:28:54.287Z,1.25
2023-02-18T23:31:26.091Z,1.65
2023-02-18T23:33:57.673Z,1.30
2023-02-18T23:36:28.079Z,1.17
2023-02-18T23:38:59.469Z,1.20
2023-02-18T23:41:30.336Z,1.60
2023-02-18T23:43:57.379Z,1.42
2023-02-18T23:46:26.566Z,1.40
2023-02-18T23:48:53.119Z,1.50
2023-02-18T23:51:22.326Z,1.63
2023-02-18T23:53:49.645Z,1.60
2023-02-18T23:56:21.729Z,2.92
2023-02-18T23:58:57.349Z,1.60
